createdAt,value
2019-01-31T00:01:24.211Z,1.82
2019-01-31T00:04:12.484Z,1.72
2019-01-31T00:07:00.353Z,1.80
2019-01-31T00:09:39.244Z,1.77
2019-01-31T00:12:14.698Z,1.60
2019-01-31T00:14:56.358Z,1.90
2019-01-31T00:17:31.929Z,1.92
2019-01-31T00:20:19.194Z,2.02
2019-01-31T00:23:12.809Z,2.17
2019-01-31T00:25:48.448Z,1.60
2019-01-31T00:28:30.375Z,1.70
2019-01-31T00:31:09.397Z,1.72
2019-01-31T00:33:42.322Z,2.00
2019-01-31T00:36:30.160Z,2.10
2019-01-31T00:39:30.263Z,1.60
2019-01-31T00:42:06.263Z,1.95
2019-01-31T00:45:06.570Z,2.20
2019-01-31T00:47:45.348Z,2.20
2019-01-31T00:50:33.309Z,2.22
2019-01-31T00:53:21.068Z,1.67
2019-01-31T00:55:59.906Z,2.22
2019-01-31T00:58:39.602Z,2.40
2019-01-31T01:01:33.487Z,2.42
2019-01-31T01:04:18.453Z,2.10
2019-01-31T01:07:09.772Z,2.30
2019-01-31T01:09:45.735Z,2.30
2019-01-31T01:12:42.285Z,1.92
2019-01-31T01:15:17.960Z,2.60
2019-01-31T01:17:50.968Z,2.60
2019-01-31T01:20:32.599Z,2.67
2019-01-31T01:23:17.559Z,2.67
2019-01-31T01:25:59.443Z,2.70
2019-01-31T01:28:35.390Z,2.92
2019-01-31T01:31:17.091Z,2.90
2019-01-31T01:33:58.386Z,3.25
2019-01-31T01:36:37.151Z,3.10
2019-01-31T01:39:19.242Z,3.40
2019-01-31T01:42:02.515Z,3.58
2019-01-31T01:44:47.309Z,3.30
2019-01-31T01:47:25.813Z,4.00
2019-01-31T01:50:01.449Z,3.60
2019-01-31T01:52:43.167Z,3.47
2019-01-31T01:55:34.515Z,2.98
2019-01-31T01:58:28.302Z,3.00
2019-01-31T02:01:31.571Z,2.62
2019-01-31T02:04:15.573Z,2.40
2019-01-31T02:07:04.155Z,2.80
2019-01-31T02:09:49.315Z,2.83
2019-01-31T02:12:39.220Z,3.15
2019-01-31T02:15:31.716Z,3.72
2019-01-31T02:18:07.337Z,2.40
2019-01-31T02:20:56.640Z,2.58
2019-01-31T02:23:35.378Z,2.50
2019-01-31T02:26:26.461Z,2.60
2019-01-31T02:29:14.240Z,2.67
2019-01-31T02:31:59.501Z,2.67
2019-01-31T02:34:53.957Z,2.30
2019-01-31T02:37:31.278Z,1.87
2019-01-31T02:40:25.516Z,2.08
2019-01-31T02:42:58.492Z,1.80
2019-01-31T02:45:31.429Z,2.17
2019-01-31T02:48:12.729Z,1.92
2019-01-31T02:50:48.373Z,2.42
2019-01-31T02:53:27.142Z,2.37
2019-01-31T02:56:05.629Z,2.55
2019-01-31T02:58:38.784Z,2.37
2019-01-31T03:01:11.806Z,2.60
2019-01-31T03:03:47.667Z,2.10
2019-01-31T03:06:54.182Z,2.05
2019-01-31T03:09:36.038Z,2.22
2019-01-31T03:12:17.677Z,1.98
2019-01-31T03:14:50.713Z,2.58
2019-01-31T03:17:35.901Z,2.00
2019-01-31T03:20:14.840Z,2.30
2019-01-31T03:23:03.721Z,2.35
2019-01-31T03:25:42.731Z,1.92
2019-01-31T03:28:15.729Z,2.37
2019-01-31T03:30:54.953Z,2.45
2019-01-31T03:33:59.935Z,2.55
2019-01-31T03:36:55.620Z,2.62
2019-01-31T03:39:40.667Z,2.25
2019-01-31T03:42:30.483Z,2.52
2019-01-31T03:45:12.243Z,2.65
2019-01-31T03:48:07.547Z,2.00
2019-01-31T03:50:45.932Z,2.47
2019-01-31T03:53:41.416Z,2.30
2019-01-31T03:56:15.714Z,2.30
2019-01-31T03:58:52.640Z,2.70
2019-01-31T04:01:42.171Z,2.40
2019-01-31T04:04:15.100Z,2.10
2019-01-31T04:06:44.770Z,2.20
2019-01-31T04:09:14.443Z,2.45
2019-01-31T04:11:44.198Z,2.35
2019-01-31T04:14:13.864Z,2.10
2019-01-31T04:16:43.623Z,1.92
2019-01-31T04:19:13.304Z,2.20
2019-01-31T04:21:43.022Z,1.92
2019-01-31T04:24:12.716Z,2.30
2019-01-31T04:26:42.449Z,2.17
2019-01-31T04:29:12.237Z,2.47
2019-01-31T04:31:41.967Z,2.47
2019-01-31T04:34:11.720Z,2.58
2019-01-31T04:36:41.416Z,2.72
2019-01-31T04:39:11.235Z,2.30
2019-01-31T04:41:41.064Z,2.50
2019-01-31T04:44:10.800Z,2.50
2019-01-31T04:46:40.477Z,2.40
2019-01-31T04:49:10.149Z,2.58
2019-01-31T04:51:39.941Z,2.62
2019-01-31T04:54:09.748Z,2.80
2019-01-31T04:56:39.487Z,2.80
2019-01-31T04:59:09.221Z,2.83
2019-01-31T05:01:38.967Z,2.55
2019-01-31T05:04:08.644Z,3.08
2019-01-31T05:06:38.410Z,2.40
2019-01-31T05:09:08.079Z,2.40
2019-01-31T05:11:37.932Z,2.52
2019-01-31T05:14:07.606Z,2.52
2019-01-31T05:16:37.355Z,2.40
2019-01-31T05:19:07.040Z,1.87
2019-01-31T05:21:36.799Z,1.82
2019-01-31T05:24:06.463Z,2.35
2019-01-31T05:26:36.168Z,2.58
2019-01-31T05:29:06.937Z,2.20
2019-01-31T05:31:37.777Z,2.10
2019-01-31T05:34:07.536Z,2.52
2019-01-31T05:36:37.236Z,2.50
2019-01-31T05:39:07.882Z,3.08
2019-01-31T05:41:38.684Z,2.98
2019-01-31T05:44:08.414Z,3.40
2019-01-31T05:46:38.176Z,2.95
2019-01-31T05:49:07.849Z,3.00
2019-01-31T05:51:39.412Z,2.72
2019-01-31T05:54:09.220Z,3.15
2019-01-31T05:56:38.897Z,2.87
2019-01-31T05:59:08.651Z,3.55
2019-01-31T06:01:38.478Z,3.45
2019-01-31T06:04:08.301Z,3.05
2019-01-31T06:06:38.053Z,3.75
2019-01-31T06:09:08.164Z,3.33
2019-01-31T06:11:37.856Z,3.00
2019-01-31T06:14:07.594Z,3.42
2019-01-31T06:16:37.358Z,2.85
2019-01-31T06:19:07.034Z,3.42
2019-01-31T06:21:36.724Z,2.60
2019-01-31T06:24:06.389Z,3.05
2019-01-31T06:26:36.105Z,3.02
2019-01-31T06:29:05.838Z,3.15
2019-01-31T06:31:35.588Z,3.55
2019-01-31T06:34:05.301Z,3.37
2019-01-31T06:36:35.056Z,2.77
2019-01-31T06:39:07.379Z,2.58
2019-01-31T06:41:37.077Z,3.10
2019-01-31T06:44:06.895Z,3.50
2019-01-31T06:46:36.653Z,2.67
2019-01-31T06:49:06.424Z,2.75
2019-01-31T06:51:36.176Z,2.55
2019-01-31T06:54:07.784Z,3.00
2019-01-31T06:56:37.344Z,2.95
2019-01-31T06:59:07.092Z,3.37
2019-01-31T07:01:36.843Z,2.85
2019-01-31T07:04:06.515Z,2.92
2019-01-31T07:06:36.272Z,2.77
2019-01-31T07:09:08.408Z,3.50
2019-01-31T07:11:38.151Z,3.25
2019-01-31T07:14:20.433Z,3.75
2019-01-31T07:16:50.475Z,4.50
2019-01-31T07:19:20.279Z,3.95
2019-01-31T07:21:50.024Z,3.60
2019-01-31T07:24:19.748Z,3.83
2019-01-31T07:26:49.440Z,3.90
2019-01-31T07:29:19.232Z,3.50
2019-01-31T07:31:48.988Z,3.95
2019-01-31T07:34:18.754Z,3.70
2019-01-31T07:36:48.557Z,3.85
2019-01-31T07:39:18.320Z,4.15
2019-01-31T07:41:48.083Z,3.77
2019-01-31T07:44:17.743Z,4.78
2019-01-31T07:46:47.447Z,4.97
2019-01-31T07:49:17.111Z,5.17
2019-01-31T07:51:46.919Z,4.78
2019-01-31T07:54:16.924Z,4.92
2019-01-31T07:56:46.677Z,4.65
2019-01-31T07:59:16.436Z,3.55
2019-01-31T08:01:46.300Z,3.37
2019-01-31T08:04:15.991Z,3.08
2019-01-31T08:06:45.659Z,3.98
2019-01-31T08:09:15.342Z,3.02
2019-01-31T08:11:52.276Z,3.92
2019-01-31T08:14:16.458Z,3.40
2019-01-31T08:16:46.220Z,3.62
2019-01-31T08:19:15.924Z,6.03
2019-01-31T08:21:45.630Z,3.87
2019-01-31T08:24:15.372Z,3.60
2019-01-31T08:26:45.070Z,3.20
2019-01-31T08:29:14.915Z,3.10
2019-01-31T08:31:44.893Z,3.12
2019-01-31T08:34:14.556Z,2.92
2019-01-31T08:36:44.320Z,2.33
2019-01-31T08:39:14.102Z,2.80
2019-01-31T08:41:43.837Z,2.62
2019-01-31T08:44:13.628Z,2.65
2019-01-31T08:46:43.358Z,2.87
2019-01-31T08:49:14.094Z,3.77
2019-01-31T08:51:43.823Z,3.60
2019-01-31T08:54:13.601Z,3.30
2019-01-31T08:56:43.357Z,3.23
2019-01-31T08:59:13.113Z,3.60
2019-01-31T09:01:42.838Z,3.40
2019-01-31T09:04:12.561Z,3.85
2019-01-31T09:06:42.309Z,2.95
2019-01-31T09:09:13.293Z,3.17
2019-01-31T09:11:49.748Z,3.15
2019-01-31T09:14:19.425Z,3.55
2019-01-31T09:16:49.189Z,3.62
2019-01-31T09:19:18.864Z,3.33
2019-01-31T09:21:48.635Z,2.80
2019-01-31T09:24:27.763Z,2.57
2019-01-31T09:27:09.421Z,2.70
2019-01-31T09:29:47.955Z,2.93
2019-01-31T09:32:35.791Z,2.50
2019-01-31T09:35:18.689Z,2.50
2019-01-31T09:37:54.259Z,2.50
2019-01-31T09:41:00.732Z,2.63
2019-01-31T09:43:50.063Z,2.60
2019-01-31T09:46:40.764Z,2.50
2019-01-31T09:49:29.027Z,2.40
2019-01-31T09:52:05.076Z,2.10
2019-01-31T09:54:38.089Z,2.67
2019-01-31T09:57:22.950Z,2.67
2019-01-31T09:59:55.998Z,2.30
2019-01-31T10:02:48.512Z,3.10
2019-01-31T10:05:48.589Z,2.90
2019-01-31T10:08:36.816Z,2.80
2019-01-31T10:11:21.660Z,2.77
2019-01-31T10:14:00.871Z,3.03
2019-01-31T10:16:36.647Z,2.23
2019-01-31T10:19:09.729Z,3.23
2019-01-31T10:21:42.855Z,3.20
2019-01-31T10:24:15.864Z,3.00
2019-01-31T10:27:01.023Z,3.53
2019-01-31T10:29:52.837Z,3.03
2019-01-31T10:32:39.772Z,2.57
2019-01-31T10:35:24.630Z,2.40
2019-01-31T10:38:15.779Z,1.90
2019-01-31T10:41:06.839Z,1.70
2019-01-31T10:43:45.656Z,1.73
2019-01-31T10:46:39.271Z,1.60
2019-01-31T10:49:21.118Z,2.30
2019-01-31T10:52:08.693Z,1.80
2019-01-31T10:54:41.755Z,2.17
2019-01-31T10:57:46.343Z,1.63
2019-01-31T11:00:34.686Z,1.80
2019-01-31T11:03:22.904Z,1.53
2019-01-31T11:06:07.718Z,1.90
2019-01-31T11:09:00.175Z,3.00
2019-01-31T11:11:33.177Z,2.73
2019-01-31T11:14:08.632Z,3.00
2019-01-31T11:16:50.824Z,3.40
2019-01-31T11:19:26.817Z,2.20
2019-01-31T11:22:20.705Z,2.80
2019-01-31T11:25:08.328Z,2.20
2019-01-31T11:27:53.530Z,1.90
2019-01-31T11:30:36.477Z,2.03
2019-01-31T11:33:38.333Z,2.60
2019-01-31T11:36:26.320Z,2.40
2019-01-31T11:39:20.930Z,2.40
2019-01-31T11:42:06.001Z,2.03
2019-01-31T11:44:55.760Z,1.83
2019-01-31T11:48:00.373Z,1.80
2019-01-31T11:50:48.368Z,1.90
2019-01-31T11:53:27.412Z,2.07
2019-01-31T11:56:00.390Z,1.83
2019-01-31T11:58:53.168Z,1.73
2019-01-31T12:01:22.907Z,4.10
2019-01-31T12:03:52.607Z,2.30
2019-01-31T12:06:22.328Z,2.30
2019-01-31T12:08:52.024Z,2.63
2019-01-31T12:11:21.749Z,1.70
2019-01-31T12:13:51.398Z,2.20
2019-01-31T12:16:21.109Z,2.17
2019-01-31T12:18:52.338Z,1.47
2019-01-31T12:21:22.029Z,1.70
2019-01-31T12:23:51.688Z,1.70
2019-01-31T12:26:21.392Z,1.77
2019-01-31T12:28:51.269Z,1.90
2019-01-31T12:31:21.155Z,1.70
2019-01-31T12:33:50.909Z,2.00
2019-01-31T12:36:21.644Z,2.03
2019-01-31T12:38:51.391Z,1.53
2019-01-31T12:41:21.148Z,2.80
2019-01-31T12:43:50.876Z,2.70
2019-01-31T12:46:21.035Z,1.67
2019-01-31T12:48:50.780Z,1.67
2019-01-31T12:51:20.538Z,1.47
2019-01-31T12:53:50.295Z,1.63
2019-01-31T12:56:20.027Z,1.23
2019-01-31T12:58:49.733Z,1.30
2019-01-31T13:01:19.615Z,1.23
2019-01-31T13:03:49.558Z,1.37
2019-01-31T13:06:19.393Z,1.70
2019-01-31T13:08:49.064Z,1.10
2019-01-31T13:11:18.749Z,1.10
2019-01-31T13:13:48.420Z,1.33
2019-01-31T13:16:18.468Z,1.67
2019-01-31T13:18:48.211Z,1.80
2019-01-31T13:21:20.712Z,1.10
2019-01-31T13:23:49.252Z,1.07
2019-01-31T13:26:18.997Z,0.93
2019-01-31T13:28:49.730Z,1.10
2019-01-31T13:31:19.499Z,1.17
2019-01-31T13:33:49.260Z,1.27
2019-01-31T13:36:19.191Z,1.20
2019-01-31T13:38:48.961Z,1.00
2019-01-31T13:41:18.638Z,1.20
2019-01-31T13:43:57.321Z,1.33
2019-01-31T13:46:19.764Z,1.10
2019-01-31T13:48:49.421Z,1.10
2019-01-31T13:51:19.237Z,1.37
2019-01-31T13:53:48.898Z,1.07
2019-01-31T13:56:18.583Z,1.47
2019-01-31T13:58:48.267Z,1.67
2019-01-31T14:01:18.069Z,1.73
2019-01-31T14:03:47.751Z,1.73
2019-01-31T14:06:17.422Z,1.70
2019-01-31T14:08:50.621Z,2.00
2019-01-31T14:11:20.348Z,1.67
2019-01-31T14:13:50.019Z,1.90
2019-01-31T14:16:19.731Z,1.73
2019-01-31T14:18:49.471Z,1.73
2019-01-31T14:21:19.166Z,1.70
2019-01-31T14:23:48.903Z,2.10
2019-01-31T14:26:24.215Z,1.90
2019-01-31T14:28:53.953Z,1.53
2019-01-31T14:31:23.633Z,1.90
2019-01-31T14:33:53.456Z,1.43
2019-01-31T14:36:23.392Z,1.93
2019-01-31T14:38:53.191Z,2.37
2019-01-31T14:41:22.985Z,1.60
2019-01-31T14:43:52.721Z,1.33
2019-01-31T14:46:22.405Z,1.33
2019-01-31T14:48:52.133Z,1.20
2019-01-31T14:51:21.798Z,1.30
2019-01-31T14:53:51.551Z,1.40
2019-01-31T14:56:21.285Z,1.33
2019-01-31T14:58:51.077Z,2.03
2019-01-31T15:01:20.852Z,1.70
2019-01-31T15:03:51.626Z,2.13
2019-01-31T15:06:21.545Z,2.13
2019-01-31T15:08:51.382Z,1.63
2019-01-31T15:11:21.080Z,1.80
2019-01-31T15:13:50.845Z,1.50
2019-01-31T15:16:20.576Z,1.63
2019-01-31T15:18:50.350Z,1.70
2019-01-31T15:21:20.031Z,1.53
2019-01-31T15:23:49.687Z,1.50
2019-01-31T15:26:20.447Z,1.70
2019-01-31T15:28:50.126Z,1.60
2019-01-31T15:31:19.879Z,1.50
2019-01-31T15:33:49.544Z,1.87
2019-01-31T15:36:19.211Z,1.90
2019-01-31T15:38:48.967Z,1.90
2019-01-31T15:41:18.667Z,1.73
2019-01-31T15:43:48.344Z,1.60
2019-01-31T15:46:18.155Z,1.43
2019-01-31T15:48:51.559Z,1.30
2019-01-31T15:51:21.336Z,1.87
2019-01-31T15:53:51.080Z,1.50
2019-01-31T15:56:20.854Z,1.63
2019-01-31T15:58:50.652Z,1.83
2019-01-31T16:01:20.353Z,1.60
2019-01-31T16:03:50.124Z,1.75
2019-01-31T16:06:19.858Z,1.60
2019-01-31T16:08:49.609Z,2.08
2019-01-31T16:11:19.306Z,1.90
2019-01-31T16:13:49.106Z,2.00
2019-01-31T16:16:20.108Z,2.50
2019-01-31T16:18:50.080Z,3.20
2019-01-31T16:21:19.808Z,3.15
2019-01-31T16:23:49.494Z,2.62
2019-01-31T16:26:19.251Z,2.08
2019-01-31T16:28:48.991Z,2.40
2019-01-31T16:31:18.673Z,2.25
2019-01-31T16:33:48.324Z,2.80
2019-01-31T16:36:18.023Z,2.80
2019-01-31T16:38:47.761Z,2.52
2019-01-31T16:41:17.562Z,2.90
2019-01-31T16:43:47.292Z,2.55
2019-01-31T16:46:16.992Z,2.65
2019-01-31T16:48:46.675Z,2.52
2019-01-31T16:51:16.522Z,2.77
2019-01-31T16:53:46.350Z,2.83
2019-01-31T16:56:16.031Z,2.72
2019-01-31T16:58:45.777Z,3.30
2019-01-31T17:01:16.144Z,3.42
2019-01-31T17:03:45.968Z,3.33
2019-01-31T17:06:15.770Z,3.45
2019-01-31T17:08:45.513Z,3.85
2019-01-31T17:11:15.258Z,4.58
2019-01-31T17:13:44.929Z,6.12
2019-01-31T17:16:14.708Z,4.67
2019-01-31T17:18:44.432Z,4.62
2019-01-31T17:21:14.183Z,4.62
2019-01-31T17:23:43.844Z,4.45
2019-01-31T17:26:13.599Z,4.67
2019-01-31T17:28:43.382Z,4.60
2019-01-31T17:31:13.212Z,5.12
2019-01-31T17:33:43.002Z,5.60
2019-01-31T17:36:12.768Z,6.20
2019-01-31T17:38:42.578Z,5.42
2019-01-31T17:41:12.308Z,5.50
2019-01-31T17:43:41.982Z,5.25
2019-01-31T17:46:12.762Z,5.87
2019-01-31T17:48:42.428Z,5.75
2019-01-31T17:51:13.799Z,6.25
2019-01-31T17:53:43.532Z,5.70
2019-01-31T17:56:13.301Z,6.28
2019-01-31T17:58:44.047Z,6.40
2019-01-31T18:01:13.846Z,7.53
2019-01-31T18:03:43.610Z,6.53
2019-01-31T18:06:13.386Z,6.85
2019-01-31T18:08:43.142Z,7.50
2019-01-31T18:11:12.927Z,7.42
2019-01-31T18:13:42.594Z,7.17
2019-01-31T18:16:12.388Z,7.92
2019-01-31T18:18:42.140Z,7.90
2019-01-31T18:21:13.022Z,8.45
2019-01-31T18:23:43.004Z,9.48
2019-01-31T18:26:15.628Z,9.58
2019-01-31T18:28:45.855Z,9.35
2019-01-31T18:31:15.610Z,8.13
2019-01-31T18:33:45.311Z,8.73
2019-01-31T18:36:15.084Z,8.48
2019-01-31T18:38:44.835Z,8.70
2019-01-31T18:41:15.670Z,9.33
2019-01-31T18:43:45.423Z,9.15
2019-01-31T18:46:15.188Z,8.43
2019-01-31T18:48:44.927Z,8.25
2019-01-31T18:51:16.155Z,8.65
2019-01-31T18:53:46.369Z,8.68
2019-01-31T18:56:16.639Z,7.87
2019-01-31T18:58:46.336Z,8.18
2019-01-31T19:01:16.374Z,7.65
2019-01-31T19:03:46.048Z,8.38
2019-01-31T19:06:16.006Z,8.33
2019-01-31T19:08:45.776Z,8.13
2019-01-31T19:11:15.537Z,7.67
2019-01-31T19:13:45.234Z,7.40
2019-01-31T19:16:14.997Z,7.20
2019-01-31T19:18:44.745Z,7.85
2019-01-31T19:21:14.484Z,7.45
2019-01-31T19:23:45.847Z,8.08
2019-01-31T19:26:15.556Z,7.72
2019-01-31T19:28:45.459Z,7.80
2019-01-31T19:31:15.285Z,7.70
2019-01-31T19:33:45.043Z,8.13
2019-01-31T19:36:14.775Z,7.90
2019-01-31T19:38:44.559Z,8.43
2019-01-31T19:41:14.268Z,8.05
2019-01-31T19:43:43.960Z,8.65
2019-01-31T19:46:16.459Z,8.43
2019-01-31T19:48:45.065Z,9.05
2019-01-31T19:51:14.783Z,10.05
2019-01-31T19:53:48.366Z,9.25
2019-01-31T19:56:17.793Z,9.48
2019-01-31T19:58:47.455Z,9.28
2019-01-31T20:01:17.147Z,10.60
2019-01-31T20:03:47.132Z,10.50
2019-01-31T20:06:18.339Z,10.75
2019-01-31T20:08:53.470Z,11.18
2019-01-31T20:11:25.200Z,9.65
2019-01-31T20:13:57.727Z,9.85
2019-01-31T20:16:29.551Z,10.78
2019-01-31T20:19:01.365Z,10.93
2019-01-31T20:21:32.435Z,12.10
2019-01-31T20:24:03.912Z,11.78
2019-01-31T20:26:33.845Z,12.98
2019-01-31T20:29:03.823Z,14.90
2019-01-31T20:31:34.243Z,24.02
2019-01-31T20:34:04.286Z,17.05
2019-01-31T20:36:37.369Z,14.95
2019-01-31T20:39:09.651Z,16.35
2019-01-31T20:41:41.392Z,20.72
2019-01-31T20:44:12.496Z,15.80
2019-01-31T20:46:46.475Z,12.63
2019-01-31T20:49:18.449Z,13.45
2019-01-31T20:51:49.335Z,12.93
2019-01-31T20:54:20.330Z,15.38
2019-01-31T20:56:51.374Z,16.87
2019-01-31T20:59:29.002Z,15.00
2019-01-31T21:02:00.120Z,13.75
2019-01-31T21:04:30.892Z,17.87
2019-01-31T21:07:01.004Z,15.15
2019-01-31T21:09:31.739Z,15.18
2019-01-31T21:12:02.130Z,14.58
2019-01-31T21:14:32.472Z,15.70
2019-01-31T21:17:03.058Z,14.05
2019-01-31T21:19:34.750Z,14.60
2019-01-31T21:22:05.313Z,13.00
2019-01-31T21:24:37.580Z,15.10
2019-01-31T21:27:08.819Z,14.73
2019-01-31T21:29:39.197Z,13.55
2019-01-31T21:32:10.058Z,14.85
2019-01-31T21:34:43.448Z,15.55
2019-01-31T21:37:15.378Z,13.68
2019-01-31T21:39:46.256Z,13.78
2019-01-31T21:42:18.286Z,13.05
2019-01-31T21:44:49.658Z,14.87
2019-01-31T21:47:22.654Z,14.80
2019-01-31T21:49:54.876Z,15.55
2019-01-31T21:52:26.620Z,14.83
2019-01-31T21:55:05.684Z,14.40
2019-01-31T21:57:36.763Z,46.92
2019-01-31T22:00:13.956Z,18.85
2019-01-31T22:02:44.512Z,14.18
2019-01-31T22:05:17.676Z,14.38
2019-01-31T22:08:00.521Z,13.93
2019-01-31T22:10:31.226Z,14.40
2019-01-31T22:13:02.842Z,14.55
2019-01-31T22:15:35.616Z,14.90
2019-01-31T22:18:08.350Z,14.35
2019-01-31T22:20:40.530Z,14.25
2019-01-31T22:23:11.156Z,14.87
2019-01-31T22:25:41.641Z,14.85
2019-01-31T22:28:12.363Z,15.28
2019-01-31T22:30:43.505Z,14.83
2019-01-31T22:33:14.106Z,15.25
2019-01-31T22:35:45.373Z,14.93
2019-01-31T22:38:15.286Z,15.10
2019-01-31T22:40:45.025Z,14.95
2019-01-31T22:43:14.820Z,14.80
2019-01-31T22:45:44.545Z,14.65
2019-01-31T22:48:14.436Z,14.93
2019-01-31T22:50:44.206Z,17.30
2019-01-31T22:53:13.965Z,31.20
2019-01-31T22:55:57.298Z,36.30
2019-01-31T22:58:32.208Z,20.52
2019-01-31T23:01:07.134Z,19.82
2019-01-31T23:03:38.409Z,16.37
2019-01-31T23:06:09.098Z,15.68
2019-01-31T23:08:39.822Z,14.90
2019-01-31T23:11:09.759Z,14.55
2019-01-31T23:13:40.721Z,14.58
2019-01-31T23:16:10.417Z,14.98
2019-01-31T23:18:40.711Z,15.20
2019-01-31T23:21:10.565Z,14.00
2019-01-31T23:23:40.339Z,14.60
2019-01-31T23:26:10.013Z,13.68
2019-01-31T23:28:40.857Z,14.93
2019-01-31T23:31:10.608Z,15.48
2019-01-31T23:33:41.257Z,14.55
2019-01-31T23:36:11.216Z,14.45
2019-01-31T23:38:41.053Z,13.95
2019-01-31T23:41:11.835Z,14.58
2019-01-31T23:43:41.501Z,14.38
2019-01-31T23:46:11.855Z,13.15
2019-01-31T23:48:43.907Z,13.85
2019-01-31T23:51:14.458Z,13.48
2019-01-31T23:53:44.337Z,13.93
2019-01-31T23:56:14.003Z,13.83
2019-01-31T23:58:43.684Z,13.78
